createdAt,value
2022-11-22T00:02:17.777Z,96406.47
2022-11-22T00:05:21.224Z,96409.03
2022-11-22T00:08:22.804Z,96404.53
2022-11-22T00:11:24.324Z,96410.66
2022-11-22T00:14:25.935Z,96413.97
2022-11-22T00:17:27.425Z,96405.91
2022-11-22T00:20:30.489Z,96405.06
2022-11-22T00:23:32.071Z,96393.53
2022-11-22T00:26:33.528Z,96396.25
2022-11-22T00:29:35.060Z,96399.66
2022-11-22T00:32:36.694Z,96394.25
2022-11-22T00:35:39.625Z,96382.97
2022-11-22T00:38:41.233Z,96383.69
2022-11-22T00:41:42.688Z,96380.06
2022-11-22T00:44:44.254Z,96378.06
2022-11-22T00:47:45.757Z,96368.31
2022-11-22T00:50:50.094Z,96370.06
2022-11-22T00:53:51.739Z,96366.19
2022-11-22T00:56:53.495Z,96367.97
2022-11-22T00:59:55.396Z,96365.34
2022-11-22T01:02:56.910Z,96363.50
2022-11-22T01:05:59.860Z,96358.22
2022-11-22T01:09:01.411Z,96355.59
2022-11-22T01:12:02.903Z,96344.16
2022-11-22T01:15:05.226Z,96345.88
2022-11-22T01:18:06.866Z,96341.41
2022-11-22T01:21:10.093Z,96334.38
2022-11-22T01:24:11.741Z,96335.22
2022-11-22T01:27:13.257Z,96331.75
2022-11-22T01:30:15.281Z,96333.38
2022-11-22T01:33:17.250Z,96326.25
2022-11-22T01:36:20.193Z,96327.25
2022-11-22T01:39:21.819Z,96318.44
2022-11-22T01:42:23.307Z,96321.06
2022-11-22T01:45:45.496Z,96328.03
2022-11-22T01:48:50.273Z,96319.38
2022-11-22T01:51:55.407Z,96327.09
2022-11-22T01:54:58.493Z,96316.59
2022-11-22T01:58:00.497Z,96319.38
2022-11-22T02:01:02.478Z,96317.59
2022-11-22T02:04:05.605Z,96322.69
2022-11-22T02:07:11.198Z,96327.97
2022-11-22T02:10:13.439Z,96322.78
2022-11-22T02:13:16.006Z,96313.97
2022-11-22T02:16:17.599Z,96331.44
2022-11-22T02:19:22.720Z,96334.84
2022-11-22T02:22:31.255Z,96321.69
2022-11-22T02:25:36.382Z,96312.91
2022-11-22T02:28:39.800Z,96316.44
2022-11-22T02:31:42.622Z,96321.69
2022-11-22T02:34:44.949Z,96308.41
2022-11-22T02:37:47.372Z,96304.09
2022-11-22T02:40:50.801Z,96307.41
2022-11-22T02:43:53.873Z,96313.44
2022-11-22T02:46:55.665Z,96314.16
2022-11-22T02:49:57.234Z,96317.56
2022-11-22T02:52:58.818Z,96309.03
2022-11-22T02:56:00.330Z,96312.66
2022-11-22T02:59:03.359Z,96308.25
2022-11-22T03:02:04.972Z,96313.38
2022-11-22T03:05:06.695Z,96309.81
2022-11-22T03:08:08.324Z,96300.13
2022-11-22T03:11:09.980Z,96305.25
2022-11-22T03:14:13.211Z,96301.78
2022-11-22T03:17:14.701Z,96298.06
2022-11-22T03:20:16.205Z,96310.00
2022-11-22T03:23:17.767Z,96306.34
2022-11-22T03:26:19.324Z,96302.03
2022-11-22T03:29:22.535Z,96302.25
2022-11-22T03:32:24.223Z,96296.94
2022-11-22T03:35:25.707Z,96307.44
2022-11-22T03:38:27.435Z,96308.28
2022-11-22T03:41:29.093Z,96310.94
2022-11-22T03:44:32.001Z,96322.22
2022-11-22T03:47:33.543Z,96318.50
2022-11-22T03:50:35.004Z,96319.50
2022-11-22T03:53:36.732Z,96320.19
2022-11-22T03:56:38.481Z,96322.91
2022-11-22T03:59:41.314Z,96315.03
2022-11-22T04:02:42.788Z,96307.13
2022-11-22T04:05:44.707Z,96313.25
2022-11-22T04:08:46.271Z,96310.53
2022-11-22T04:11:47.830Z,96302.56
2022-11-22T04:15:09.409Z,96297.38
2022-11-22T04:18:11.173Z,96304.13
2022-11-22T04:21:31.306Z,96306.00
2022-11-22T04:24:51.190Z,96314.47
2022-11-22T04:27:52.733Z,96323.31
2022-11-22T04:31:14.167Z,96330.91
2022-11-22T04:34:15.632Z,96334.31
2022-11-22T04:37:17.085Z,96334.16
2022-11-22T04:40:18.745Z,96338.56
2022-11-22T04:43:40.386Z,96339.50
2022-11-22T04:46:43.232Z,96341.13
2022-11-22T04:49:45.212Z,96343.59
2022-11-22T04:52:55.935Z,96344.44
2022-11-22T04:55:57.447Z,96343.59
2022-11-22T04:58:59.021Z,96353.13
2022-11-22T05:02:02.024Z,96353.56
2022-11-22T05:05:03.569Z,96350.16
2022-11-22T05:08:05.763Z,96357.84
2022-11-22T05:11:07.243Z,96345.75
2022-11-22T05:14:09.193Z,96356.28
2022-11-22T05:17:13.502Z,96353.91
2022-11-22T05:20:15.321Z,96354.91
2022-11-22T05:23:36.137Z,96356.63
2022-11-22T05:26:37.707Z,96353.03
2022-11-22T05:29:39.172Z,96359.25
2022-11-22T05:32:42.028Z,96363.50
2022-11-22T05:35:43.480Z,96362.31
2022-11-22T05:38:45.112Z,96364.91
2022-11-22T05:41:56.049Z,96360.63
2022-11-22T05:44:57.879Z,96358.00
2022-11-22T05:48:01.020Z,96364.09
2022-11-22T05:51:06.385Z,96368.50
2022-11-22T05:54:07.992Z,96354.59
2022-11-22T05:57:09.580Z,96351.78
2022-11-22T06:00:11.648Z,96357.94
2022-11-22T06:03:14.527Z,96356.84
2022-11-22T06:06:16.628Z,96361.19
2022-11-22T06:09:18.164Z,96360.50
2022-11-22T06:12:19.681Z,96361.63
2022-11-22T06:15:21.289Z,96362.66
2022-11-22T06:18:24.214Z,96372.94
2022-11-22T06:21:25.850Z,96373.94
2022-11-22T06:24:27.651Z,96374.03
2022-11-22T06:27:29.180Z,96370.38
2022-11-22T06:30:30.751Z,96377.41
2022-11-22T06:33:33.864Z,96384.63
2022-11-22T06:36:35.508Z,96397.88
2022-11-22T06:39:37.826Z,96390.94
2022-11-22T06:42:39.262Z,96401.09
2022-11-22T06:45:40.765Z,96399.13
2022-11-22T06:48:43.836Z,96403.44
2022-11-22T06:51:45.319Z,96412.97
2022-11-22T06:54:46.821Z,96419.94
2022-11-22T06:57:51.541Z,96413.81
2022-11-22T07:00:53.220Z,96418.06
2022-11-22T07:03:58.310Z,96418.94
2022-11-22T07:07:00.288Z,96426.63
2022-11-22T07:10:01.843Z,96440.63
2022-11-22T07:13:03.262Z,96440.47
2022-11-22T07:16:05.615Z,96446.50
2022-11-22T07:19:08.575Z,96451.69
2022-11-22T07:22:10.204Z,96457.75
2022-11-22T07:25:11.630Z,96461.28
2022-11-22T07:28:13.219Z,96461.06
2022-11-22T07:31:15.642Z,96463.56
2022-11-22T07:34:18.902Z,96462.41
2022-11-22T07:37:20.560Z,96473.47
2022-11-22T07:40:22.111Z,96463.66
2022-11-22T07:43:23.655Z,96461.06
2022-11-22T07:46:29.455Z,96463.31
2022-11-22T07:49:32.583Z,96477.13
2022-11-22T07:52:34.361Z,96472.84
2022-11-22T07:55:36.835Z,96483.69
2022-11-22T07:58:38.872Z,96481.53
2022-11-22T08:01:40.467Z,96496.16
2022-11-22T08:04:43.380Z,96501.03
2022-11-22T08:07:48.405Z,96503.38
2022-11-22T08:10:49.976Z,96503.97
2022-11-22T08:13:51.485Z,96501.94
2022-11-22T08:16:53.328Z,96500.00
2022-11-22T08:19:56.187Z,96493.88
2022-11-22T08:22:57.796Z,96496.44
2022-11-22T08:25:59.366Z,96500.00
2022-11-22T08:29:01.044Z,96502.41
2022-11-22T08:32:02.584Z,96511.16
2022-11-22T08:35:06.095Z,96516.44
2022-11-22T08:38:07.701Z,96514.56
2022-11-22T08:41:11.980Z,96510.84
2022-11-22T08:44:13.716Z,96515.00
2022-11-22T08:47:15.204Z,96520.22
2022-11-22T08:50:18.677Z,96520.44
2022-11-22T08:53:20.733Z,96517.44
2022-11-22T08:56:22.276Z,96531.25
2022-11-22T08:59:23.770Z,96527.50
2022-11-22T09:02:25.679Z,96523.94
2022-11-22T09:05:32.585Z,96519.41
2022-11-22T09:08:36.258Z,96526.31
2022-11-22T09:11:39.284Z,96533.22
2022-11-22T09:14:40.826Z,96542.75
2022-11-22T09:17:42.737Z,96546.25
2022-11-22T09:20:45.595Z,96552.47
2022-11-22T09:23:48.120Z,96547.28
2022-11-22T09:26:49.738Z,96552.78
2022-11-22T09:29:51.589Z,96564.47
2022-11-22T09:32:53.123Z,96572.69
2022-11-22T09:36:00.900Z,96573.41
2022-11-22T09:39:02.413Z,96559.72
2022-11-22T09:42:14.349Z,96556.16
2022-11-22T09:45:39.440Z,96560.44
2022-11-22T09:48:47.286Z,96556.34
2022-11-22T09:51:54.197Z,96558.88
2022-11-22T09:54:57.657Z,96554.78
2022-11-22T09:58:04.390Z,96555.38
2022-11-22T10:01:08.942Z,96549.56
2022-11-22T10:04:13.704Z,96553.41
2022-11-22T10:07:22.796Z,96551.59
2022-11-22T10:10:27.632Z,96545.38
2022-11-22T10:13:31.671Z,96534.00
2022-11-22T10:16:36.361Z,96534.63
2022-11-22T10:19:39.556Z,96539.53
2022-11-22T10:22:42.441Z,96532.84
2022-11-22T10:25:45.834Z,96546.88
2022-11-22T10:28:51.520Z,96542.06
2022-11-22T10:31:57.755Z,96532.53
2022-11-22T10:35:11.368Z,96540.31
2022-11-22T10:38:29.952Z,96540.03
2022-11-22T10:41:38.010Z,96546.75
2022-11-22T10:44:44.830Z,96536.72
2022-11-22T10:47:53.928Z,96534.88
2022-11-22T10:51:00.679Z,96532.97
2022-11-22T10:54:13.349Z,96528.44
2022-11-22T10:57:20.655Z,96526.16
2022-11-22T11:00:22.779Z,96529.94
2022-11-22T11:03:27.044Z,96528.19
2022-11-22T11:07:04.263Z,96518.88
2022-11-22T11:10:27.489Z,96518.81
2022-11-22T11:13:25.107Z,96517.00
2022-11-22T11:16:30.515Z,96511.94
2022-11-22T11:19:37.125Z,96510.59
2022-11-22T11:26:15.717Z,96512.09
2022-11-22T11:29:27.676Z,96515.88
2022-11-22T11:32:29.142Z,96515.81
2022-11-22T11:35:31.192Z,96528.13
2022-11-22T11:38:34.134Z,96520.00
2022-11-22T11:41:43.120Z,96517.47
2022-11-22T11:44:45.082Z,96515.00
2022-11-22T11:47:46.784Z,96524.28
2022-11-22T11:50:48.381Z,96514.50
2022-11-22T11:54:07.523Z,96515.13
2022-11-22T11:57:11.400Z,96512.91
2022-11-22T12:00:20.654Z,96514.00
2022-11-22T12:03:29.628Z,96520.97
2022-11-22T12:06:32.267Z,96516.63
2022-11-22T12:09:35.924Z,96515.13
2022-11-22T12:12:43.757Z,96519.72
2022-11-22T12:15:51.898Z,96531.75
2022-11-22T12:18:56.677Z,96523.06
2022-11-22T12:22:01.552Z,96531.00
2022-11-22T12:25:31.654Z,96536.41
2022-11-22T12:28:34.019Z,96540.19
2022-11-22T12:31:37.798Z,96535.66
2022-11-22T12:34:44.555Z,96524.63
2022-11-22T12:37:49.063Z,96522.66
2022-11-22T12:40:53.237Z,96514.25
2022-11-22T12:43:57.917Z,96530.13
2022-11-22T12:47:01.724Z,96531.66
2022-11-22T12:50:07.812Z,96517.63
2022-11-22T12:53:12.377Z,96517.63
2022-11-22T12:56:18.891Z,96517.28
2022-11-22T12:59:27.993Z,96524.28
2022-11-22T13:02:31.777Z,96528.06
2022-11-22T13:05:36.775Z,96532.91
2022-11-22T13:08:40.725Z,96530.94
2022-11-22T13:11:46.115Z,96519.94
2022-11-22T13:14:54.066Z,96520.63
2022-11-22T13:17:55.746Z,96513.41
2022-11-22T13:21:02.087Z,96528.81
2022-11-22T13:24:14.239Z,96526.56
2022-11-22T13:27:19.776Z,96533.56
2022-11-22T13:30:24.046Z,96529.13
2022-11-22T13:33:26.096Z,96529.41
2022-11-22T13:36:37.149Z,96523.53
2022-11-22T13:39:41.852Z,96527.69
2022-11-22T13:42:43.620Z,96525.03
2022-11-22T13:45:49.825Z,96520.28
2022-11-22T13:49:08.489Z,96517.09
2022-11-22T13:52:25.408Z,96521.63
2022-11-22T13:55:37.268Z,96529.47
2022-11-22T13:58:50.244Z,96531.47
2022-11-22T14:01:57.837Z,96529.13
2022-11-22T14:04:59.391Z,96526.94
2022-11-22T14:08:01.715Z,96524.00
2022-11-22T14:11:10.166Z,96529.41
2022-11-22T14:14:15.904Z,96524.38
2022-11-22T14:17:35.576Z,96527.00
2022-11-22T14:20:44.337Z,96515.78
2022-11-22T14:23:53.730Z,96512.75
2022-11-22T14:26:59.840Z,96517.84
2022-11-22T14:30:04.370Z,96525.03
2022-11-22T14:33:15.990Z,96533.16
2022-11-22T14:36:17.817Z,96529.56
2022-11-22T14:39:38.579Z,96525.78
2022-11-22T14:42:54.098Z,96535.13
2022-11-22T14:45:59.488Z,96529.00
2022-11-22T14:49:06.682Z,96536.94
2022-11-22T14:52:15.116Z,96536.47
2022-11-22T14:55:18.879Z,96537.88
2022-11-22T14:58:23.190Z,96540.13
2022-11-22T15:01:31.311Z,96524.25
2022-11-22T15:09:12.369Z,96521.19
2022-11-22T15:09:14.917Z,96533.13
2022-11-22T15:11:57.306Z,96525.91
2022-11-22T15:59:41.834Z,96571.38
2022-11-22T16:02:48.598Z,96575.78
2022-11-22T16:06:08.215Z,96576.94
2022-11-22T16:09:19.351Z,96579.50
2022-11-22T16:12:27.208Z,96588.47
2022-11-22T16:15:39.186Z,96600.47
2022-11-22T16:18:41.754Z,96604.22
2022-11-22T16:21:54.836Z,96600.22
2022-11-22T16:25:15.262Z,96605.50
2022-11-22T16:28:27.794Z,96604.06
2022-11-22T16:31:31.693Z,96611.91
2022-11-22T16:34:33.227Z,96597.75
2022-11-22T16:37:39.096Z,96606.63
2022-11-22T16:40:43.713Z,96595.88
2022-11-22T16:43:45.926Z,96615.16
2022-11-22T16:46:48.844Z,96609.78
2022-11-22T16:49:50.498Z,96612.44
2022-11-22T16:52:52.566Z,96618.66
2022-11-22T16:55:53.991Z,96619.50
2022-11-22T16:58:56.500Z,96622.72
2022-11-22T17:02:01.182Z,96620.25
2022-11-22T17:05:03.115Z,96628.69
2022-11-22T17:08:09.568Z,96620.84
2022-11-22T17:11:11.654Z,96621.88
2022-11-22T17:14:14.507Z,96620.09
2022-11-22T17:17:18.276Z,96612.16
2022-11-22T17:20:19.861Z,96620.84
2022-11-22T17:23:26.296Z,96625.38
2022-11-22T17:26:28.324Z,96623.75
2022-11-22T17:32:56.040Z,96614.97
2022-11-22T17:35:57.700Z,96621.13
2022-11-22T17:39:00.421Z,96626.22
2022-11-22T17:42:01.962Z,96628.00
2022-11-22T17:45:03.933Z,96631.69
2022-11-22T17:48:07.139Z,96634.16
2022-11-22T17:51:09.531Z,96642.06
2022-11-22T17:54:10.971Z,96643.09
2022-11-22T17:57:13.479Z,96643.97
2022-11-22T18:00:15.472Z,96639.25
2022-11-22T18:03:18.344Z,96638.41
2022-11-22T18:06:23.323Z,96642.75
2022-11-22T18:09:24.923Z,96627.75
2022-11-22T18:12:27.138Z,96637.97
2022-11-22T18:15:28.721Z,96633.56
2022-11-22T18:21:54.159Z,96639.78
2022-11-22T18:24:55.725Z,96644.38
2022-11-22T18:27:57.270Z,96632.97
2022-11-22T18:30:58.767Z,96633.56
2022-11-22T18:34:01.628Z,96637.81
2022-11-22T18:37:04.566Z,96632.28
2022-11-22T18:40:07.256Z,96630.41
2022-11-22T18:43:08.747Z,96640.28
2022-11-22T18:46:10.716Z,96639.25
2022-11-22T18:49:13.635Z,96641.16
2022-11-22T18:52:17.845Z,96640.22
2022-11-22T18:55:20.240Z,96645.50
2022-11-22T18:58:21.865Z,96634.56
2022-11-22T19:01:23.862Z,96648.56
2022-11-22T19:04:26.897Z,96638.91
2022-11-22T19:07:28.589Z,96639.75
2022-11-22T19:10:30.139Z,96634.47
2022-11-22T19:13:32.079Z,96647.44
2022-11-22T19:16:33.718Z,96640.69
2022-11-22T19:19:37.033Z,96640.03
2022-11-22T19:22:38.787Z,96640.63
2022-11-22T19:25:40.595Z,96636.13
2022-11-22T19:28:42.531Z,96641.03
2022-11-22T19:31:44.708Z,96639.34
2022-11-22T19:34:47.591Z,96641.03
2022-11-22T19:37:49.239Z,96633.94
2022-11-22T19:40:50.705Z,96637.13
2022-11-22T19:43:52.549Z,96627.19
2022-11-22T19:46:56.851Z,96631.66
2022-11-22T19:49:59.742Z,96639.34
2022-11-22T19:53:01.220Z,96645.09
2022-11-22T19:56:05.032Z,96642.47
2022-11-22T19:59:07.922Z,96632.63
2022-11-22T20:02:09.404Z,96637.88
2022-11-22T20:05:12.280Z,96630.00
2022-11-22T20:08:13.755Z,96634.53
2022-11-22T20:11:16.482Z,96640.00
2022-11-22T20:14:18.031Z,96636.41
2022-11-22T20:17:20.415Z,96631.47
2022-11-22T20:20:23.898Z,96640.34
2022-11-22T20:23:25.347Z,96636.50
2022-11-22T20:26:27.500Z,96641.78
2022-11-22T20:29:29.192Z,96650.56
2022-11-22T20:32:30.659Z,96653.94
2022-11-22T20:35:33.661Z,96651.09
2022-11-22T20:38:36.571Z,96648.44
2022-11-22T20:41:38.655Z,96645.63
2022-11-22T20:44:40.135Z,96655.34
2022-11-22T20:47:41.780Z,96659.78
2022-11-22T20:50:51.600Z,96664.13
2022-11-22T20:53:53.237Z,96666.63
2022-11-22T20:56:55.795Z,96668.41
2022-11-22T20:59:57.757Z,96659.69
2022-11-22T21:02:59.545Z,96655.44
2022-11-22T21:06:04.888Z,96657.41
2022-11-22T21:09:06.618Z,96655.63
2022-11-22T21:12:08.012Z,96651.28
2022-11-22T21:15:10.035Z,96658.94
2022-11-22T21:18:27.596Z,96665.25
2022-11-22T21:21:31.425Z,96655.53
2022-11-22T21:24:33.146Z,96659.13
2022-11-22T21:27:36.336Z,96666.97
2022-11-22T21:30:37.937Z,96680.09
2022-11-22T21:33:39.564Z,96674.72
2022-11-22T21:36:42.645Z,96677.22
2022-11-22T21:39:44.246Z,96681.47
2022-11-22T21:42:45.969Z,96683.25
2022-11-22T21:45:47.535Z,96684.09
2022-11-22T21:48:50.343Z,96691.94
2022-11-22T21:51:53.208Z,96693.75
2022-11-22T21:54:54.794Z,96694.78
2022-11-22T21:57:56.419Z,96688.53
2022-11-22T22:01:01.425Z,96691.09
2022-11-22T22:04:03.095Z,96687.41
2022-11-22T22:07:07.320Z,96691.00
2022-11-22T22:10:15.714Z,96678.63
2022-11-22T22:13:18.998Z,96681.19
2022-11-22T22:16:23.680Z,96688.13
2022-11-22T22:19:25.371Z,96693.31
2022-11-22T22:22:28.286Z,96690.69
2022-11-22T22:25:29.977Z,96695.03
2022-11-22T22:28:32.131Z,96694.06
2022-11-22T22:31:33.729Z,96704.56
2022-11-22T22:34:36.273Z,96696.72
2022-11-22T22:37:39.227Z,96700.50
2022-11-22T22:40:40.715Z,96701.41
2022-11-22T22:43:43.045Z,96705.69
2022-11-22T22:46:44.699Z,96705.59
2022-11-22T22:49:46.404Z,96709.09
2022-11-22T22:52:49.241Z,96709.84
2022-11-22T22:55:53.287Z,96711.00
2022-11-22T22:58:57.970Z,96716.38
2022-11-22T23:01:59.494Z,96705.00
2022-11-22T23:05:01.028Z,96712.34
2022-11-22T23:08:04.156Z,96714.91
2022-11-22T23:11:06.861Z,96714.16
2022-11-22T23:14:08.583Z,96717.56
2022-11-22T23:17:11.205Z,96717.56
2022-11-22T23:20:13.099Z,96713.19
2022-11-22T23:23:15.916Z,96707.81
2022-11-22T23:26:17.506Z,96714.06
2022-11-22T23:29:19.056Z,96715.75
2022-11-22T23:32:20.743Z,96723.78
2022-11-22T23:35:22.407Z,96723.97
2022-11-22T23:38:25.295Z,96720.38
2022-11-22T23:41:27.070Z,96712.59
2022-11-22T23:44:28.571Z,96716.09
2022-11-22T23:47:30.062Z,96722.16
2022-11-22T23:50:37.035Z,96718.59
2022-11-22T23:53:40.254Z,96721.03
2022-11-22T23:56:41.811Z,96726.00
2022-11-22T23:59:43.355Z,96727.34
